Time;durP1;ratioP1;P1;durP2;ratioP2;P2;SDS_P1;SDS_P2;PMS_P1;PMS_P2;Temp;Humidity;BMP_temperature;BMP_pressure;BME280_temperature;BME280_humidity;BME280_pressure;Samples;Min_cycle;Max_cycle;Signal;HPM_P1;HPM_P2
2023/09/05 00:01:33;;;;;;;;;;;;;;;23.77;52.63;101193.91;4212552;28;19924;-59
2023/09/05 00:03:34;;;;;;;;;;;;;;;23.75;52.98;101191.34;4204771;28;20403;-59
2023/09/05 00:05:36;;;;;;;;;;;;;;;23.74;52.72;101189.66;4194260;28;19936;-58
2023/09/05 00:07:38;;;;;;;;;;;;;;;23.75;53.02;101195.88;4195081;28;20017;-58
2023/09/05 00:09:40;;;;;;;;;;;;;;;23.75;53.11;101198.56;4195377;28;19929;-59
2023/09/05 00:11:41;;;;;;;;;;;;;;;23.74;53.36;101202.22;4195358;28;20012;-59
2023/09/05 00:13:43;;;;;;;;;;;;;;;23.74;53.46;101196.84;4195477;28;20023;-59
2023/09/05 00:15:44;;;;;;;;;;;;;;;23.73;53.55;101198.69;4176364;28;19975;-59
2023/09/05 00:17:46;;;;;;;;;;;;;;;23.72;53.75;101207.72;4194990;28;20011;-59
2023/09/05 00:19:48;;;;;;;;;;;;;;;23.72;53.53;101207.72;4195157;28;19928;-59
2023/09/05 00:21:50;;;;;;;;;;;;;;;23.73;53.69;101208.56;4195395;28;19933;-59
2023/09/05 00:23:51;;;;;;;;;;;;;;;23.72;54.02;101204.19;4195060;27;19925;-59
2023/09/05 00:25:53;;;;;;;;;;;;;;;23.73;53.71;101211.25;4194107;28;21812;-60
2023/09/05 00:27:54;;;;;;;;;;;;;;;23.72;53.90;101209.53;4195236;28;19955;-59
2023/09/05 00:29:57;;;;;;;;;;;;;;;23.71;53.92;101203.34;4194943;28;20015;-59
2023/09/05 00:32:03;;;;;;;;;;;;;;;23.71;53.48;101203.34;4195301;28;19947;-58
2023/09/05 00:34:04;;;;;;;;;;;;;;;23.71;53.88;101199.81;4194819;28;20346;-59
2023/09/05 00:36:06;;;;;;;;;;;;;;;23.70;53.72;101200.78;4193665;28;19929;-59
2023/09/05 00:38:07;;;;;;;;;;;;;;;23.69;53.94;101209.81;4194868;28;19932;-57
2023/09/05 00:40:09;;;;;;;;;;;;;;;23.69;53.74;101199.06;4195037;28;19962;-58
2023/09/05 00:42:12;;;;;;;;;;;;;;;23.69;54.15;101196.41;4195262;28;20027;-58
2023/09/05 00:44:14;;;;;;;;;;;;;;;23.68;54.12;101195.56;4201096;28;20019;-58
2023/09/05 00:46:16;;;;;;;;;;;;;;;23.68;54.13;101200.94;4210706;27;20004;-59
2023/09/05 00:48:27;;;;;;;;;;;;;;;23.66;53.92;101192.13;4211826;27;19971;-59
2023/09/05 00:50:28;;;;;;;;;;;;;;;23.67;54.24;101187.59;4193702;28;19924;-58
2023/09/05 00:52:30;;;;;;;;;;;;;;;23.66;54.02;101196.63;4211325;28;19953;-59
2023/09/05 00:54:32;;;;;;;;;;;;;;;23.65;53.65;101189.59;4211445;28;19924;-58
2023/09/05 00:56:35;;;;;;;;;;;;;;;23.65;53.64;101186.91;4210654;28;20397;-58
2023/09/05 00:58:36;;;;;;;;;;;;;;;23.63;53.84;101189.69;4211936;27;19956;-58
2023/09/05 01:00:38;;;;;;;;;;;;;;;23.62;53.75;101187.97;4211347;28;19924;-60
2023/09/05 01:02:41;;;;;;;;;;;;;;;23.63;53.73;101194.22;4211591;28;19972;-59
2023/09/05 01:04:43;;;;;;;;;;;;;;;23.61;53.74;101194.38;4160602;28;20402;-60
2023/09/05 01:07:03;;;;;;;;;;;;;;;23.60;53.71;101190.81;4193340;28;19925;-59
2023/09/05 01:09:20;;;;;;;;;;;;;;;23.61;53.79;101191.69;4194728;28;19925;-59
2023/09/05 01:11:22;;;;;;;;;;;;;;;23.60;53.88;101193.50;4194639;28;19956;-59
2023/09/05 01:13:27;;;;;;;;;;;;;;;23.60;53.79;101196.19;4194756;28;19931;-59
2023/09/05 01:15:29;;;;;;;;;;;;;;;23.58;53.35;101190.06;4193822;28;19924;-60
2023/09/05 01:17:30;;;;;;;;;;;;;;;23.57;54.12;101193.75;4194080;28;19928;-60
2023/09/05 01:19:36;;;;;;;;;;;;;;;23.57;54.03;101185.72;4194589;28;19924;-60
2023/09/05 01:21:40;;;;;;;;;;;;;;;23.59;54.07;101193.63;4194294;28;20280;-59
2023/09/05 01:23:44;;;;;;;;;;;;;;;23.57;54.23;101191.06;4194422;28;19924;-59
2023/09/05 01:25:46;;;;;;;;;;;;;;;23.56;53.98;101188.50;4193708;28;20481;-60
2023/09/05 01:27:48;;;;;;;;;;;;;;;23.56;54.01;101189.38;4194455;28;19966;-60
2023/09/05 01:29:50;;;;;;;;;;;;;;;23.55;54.22;101193.03;4194465;27;19936;-60
2023/09/05 01:31:53;;;;;;;;;;;;;;;23.55;54.08;101190.34;4194492;28;19931;-60
2023/09/05 01:33:54;;;;;;;;;;;;;;;23.54;54.33;101185.13;4210158;28;19968;-60
2023/09/05 01:35:56;;;;;;;;;;;;;;;23.53;54.30;101191.47;4193201;28;20019;-61
2023/09/05 01:37:58;;;;;;;;;;;;;;;23.52;54.11;101179.00;4194429;28;19924;-59
2023/09/05 01:39:59;;;;;;;;;;;;;;;23.52;54.28;101185.22;4194354;28;19935;-60
2023/09/05 01:42:01;;;;;;;;;;;;;;;23.51;54.15;101185.34;4194437;28;19933;-59
2023/09/05 01:44:02;;;;;;;;;;;;;;;23.50;54.33;101187.19;4198899;28;20432;-60
2023/09/05 01:46:04;;;;;;;;;;;;;;;23.50;54.22;101180.97;4211004;28;20333;-60
2023/09/05 01:48:06;;;;;;;;;;;;;;;23.49;54.36;101180.13;4213909;28;19925;-60
2023/09/05 01:50:08;;;;;;;;;;;;;;;23.50;54.26;101183.66;4213698;28;19972;-59
2023/09/05 01:52:09;;;;;;;;;;;;;;;23.49;54.50;101180.13;4196158;28;19930;-59
2023/09/05 01:54:10;;;;;;;;;;;;;;;23.47;54.23;101174.03;4213776;28;19931;-61
2023/09/05 01:56:12;;;;;;;;;;;;;;;23.47;54.25;101176.69;4213039;28;19932;-60
2023/09/05 01:58:14;;;;;;;;;;;;;;;23.47;54.50;101176.69;4195947;28;20032;-60
2023/09/05 02:00:17;;;;;;;;;;;;;;;23.47;53.95;101174.03;4213724;28;19930;-59
2023/09/05 02:02:19;;;;;;;;;;;;;;;23.45;54.30;101166.09;4213971;28;19924;-60
2023/09/05 02:04:21;;;;;;;;;;;;;;;23.45;54.36;101166.09;4199748;28;20407;-60
2023/09/05 02:06:22;;;;;;;;;;;;;;;23.45;53.97;101165.22;4196221;28;20434;-60
2023/09/05 02:08:24;;;;;;;;;;;;;;;23.45;54.16;101167.91;4197131;28;19969;-60
2023/09/05 02:10:25;;;;;;;;;;;;;;;23.43;54.22;101159.16;4197026;28;19929;-60
2023/09/05 02:12:27;;;;;;;;;;;;;;;23.42;54.09;101154.78;4197003;28;20027;-60
2023/09/05 02:14:29;;;;;;;;;;;;;;;23.41;54.01;101161.09;4197043;28;19925;-60
2023/09/05 02:16:36;;;;;;;;;;;;;;;23.41;54.29;101151.22;4195726;28;19929;-60
2023/09/05 02:18:37;;;;;;;;;;;;;;;23.41;54.22;101147.69;4196592;28;19925;-59
2023/09/05 02:20:42;;;;;;;;;;;;;;;23.40;54.59;101149.53;4197082;28;19924;-60
2023/09/05 02:22:44;;;;;;;;;;;;;;;23.40;54.50;101148.66;4197029;28;19931;-59
2023/09/05 02:24:45;;;;;;;;;;;;;;;23.39;54.43;101152.31;4196870;28;20024;-60
2023/09/05 02:26:47;;;;;;;;;;;;;;;23.38;54.33;101148.81;4195641;28;20015;-60
2023/09/05 02:28:53;;;;;;;;;;;;;;;23.39;54.60;101157.69;4196723;28;20359;-59
2023/09/05 02:31:03;;;;;;;;;;;;;;;23.38;54.50;101156.84;4197125;28;19963;-59
2023/09/05 02:33:08;;;;;;;;;;;;;;;23.37;54.55;101159.69;4196383;28;19928;-60
2023/09/05 02:35:10;;;;;;;;;;;;;;;23.37;54.63;101160.50;4196518;28;19929;-60
2023/09/05 02:37:14;;;;;;;;;;;;;;;23.37;54.78;101162.34;4195619;28;20415;-60
2023/09/05 02:39:15;;;;;;;;;;;;;;;23.38;54.63;101158.66;4196851;27;19925;-60
2023/09/05 02:41:17;;;;;;;;;;;;;;;23.35;54.54;101157.09;4196511;28;20246;-60
2023/09/05 02:43:18;;;;;;;;;;;;;;;23.35;54.79;101157.09;4196555;28;19960;-59
2023/09/05 02:45:20;;;;;;;;;;;;;;;23.34;54.60;101157.22;4211818;28;20028;-60
2023/09/05 02:47:22;;;;;;;;;;;;;;;23.33;54.79;101161.75;4211914;28;19978;-60
2023/09/05 02:49:23;;;;;;;;;;;;;;;23.33;54.39;101156.38;4213286;28;19924;-60
2023/09/05 02:51:30;;;;;;;;;;;;;;;23.34;54.59;101159.91;4213188;28;19956;-59
2023/09/05 02:53:32;;;;;;;;;;;;;;;23.32;54.87;101157.38;4195212;28;19935;-59
2023/09/05 02:55:34;;;;;;;;;;;;;;;23.32;54.70;101157.38;4213137;28;19962;-59
2023/09/05 02:57:35;;;;;;;;;;;;;;;23.32;54.65;101159.19;4211738;28;19924;-60
2023/09/05 02:59:37;;;;;;;;;;;;;;;23.31;54.86;101166.38;4213266;28;19925;-59
2023/09/05 03:01:39;;;;;;;;;;;;;;;23.29;54.88;101158.47;4212682;28;19924;-59
2023/09/05 03:03:45;;;;;;;;;;;;;;;23.28;54.73;101148.72;4186550;28;19987;-60
2023/09/05 03:05:52;;;;;;;;;;;;;;;23.29;54.99;101154.91;4178983;28;19951;-60
2023/09/05 03:07:55;;;;;;;;;;;;;;;23.29;54.82;101154.91;4179437;28;19932;-59
2023/09/05 03:09:56;;;;;;;;;;;;;;;23.28;54.98;101159.44;4179726;28;20078;-60
2023/09/05 03:11:58;;;;;;;;;;;;;;;23.27;54.76;101157.75;4179692;28;19925;-60
2023/09/05 03:14:04;;;;;;;;;;;;;;;23.27;55.16;101155.06;4179456;28;19985;-59
2023/09/05 03:16:12;;;;;;;;;;;;;;;23.27;54.94;101151.53;4182873;28;19973;-59
2023/09/05 03:18:18;;;;;;;;;;;;;;;23.26;54.96;101149.81;4210553;27;19992;-60
2023/09/05 03:20:25;;;;;;;;;;;;;;;23.25;55.03;101140.91;4196115;28;19932;-57
2023/09/05 03:22:27;;;;;;;;;;;;;;;23.25;55.03;101150.81;4196083;28;19949;-58
2023/09/05 03:24:28;;;;;;;;;;;;;;;23.25;55.08;101150.81;4195997;28;20007;-58
2023/09/05 03:26:30;;;;;;;;;;;;;;;23.25;55.05;101142.75;4194957;28;19925;-58
2023/09/05 03:28:41;;;;;;;;;;;;;;;23.23;54.95;101142.00;4195823;28;19925;-58
2023/09/05 03:30:42;;;;;;;;;;;;;;;23.23;55.09;101144.69;4195809;28;19929;-58
2023/09/05 03:32:44;;;;;;;;;;;;;;;23.23;54.86;101147.38;4196057;28;19924;-59
2023/09/05 03:34:48;;;;;;;;;;;;;;;23.21;54.99;101141.28;4195935;28;19924;-58
2023/09/05 03:36:50;;;;;;;;;;;;;;;23.21;54.92;101141.28;4194829;28;19925;-57
2023/09/05 03:38:52;;;;;;;;;;;;;;;23.20;55.11;101143.13;4195858;28;19936;-57
2023/09/05 03:40:54;;;;;;;;;;;;;;;23.20;54.96;101139.59;4195704;28;19931;-58
2023/09/05 03:42:56;;;;;;;;;;;;;;;23.18;55.04;101139.72;4196208;28;19932;-58
2023/09/05 03:44:57;;;;;;;;;;;;;;;23.19;55.43;101143.25;4208226;28;20377;-58
2023/09/05 03:46:59;;;;;;;;;;;;;;;23.18;54.97;101141.53;4211533;27;19928;-58
2023/09/05 03:49:01;;;;;;;;;;;;;;;23.18;55.15;101137.03;4212413;28;19951;-58
2023/09/05 03:51:02;;;;;;;;;;;;;;;23.17;55.47;101129.09;4212464;28;20014;-57
2023/09/05 03:53:04;;;;;;;;;;;;;;;23.16;55.21;101130.06;4212579;28;19924;-58
2023/09/05 03:55:10;;;;;;;;;;;;;;;23.14;55.34;101120.28;4212263;28;19924;-58
2023/09/05 03:57:12;;;;;;;;;;;;;;;23.15;55.35;101113.13;4211392;28;19935;-58
2023/09/05 03:59:14;;;;;;;;;;;;;;;23.13;55.29;101107.84;4212452;28;19970;-58
2023/09/05 04:01:16;;;;;;;;;;;;;;;23.13;55.18;101104.31;4211950;28;19931;-58
2023/09/05 04:03:17;;;;;;;;;;;;;;;23.12;55.09;101103.50;4189700;27;19931;-58
2023/09/05 04:05:21;;;;;;;;;;;;;;;23.11;55.18;101096.41;4195563;28;19967;-57
2023/09/05 04:07:22;;;;;;;;;;;;;;;23.11;55.16;101103.59;4194551;28;20014;-58
2023/09/05 04:09:24;;;;;;;;;;;;;;;23.10;55.44;101100.06;4194331;28;19931;-58
2023/09/05 04:11:26;;;;;;;;;;;;;;;23.10;55.20;101102.75;4195297;28;19949;-58
2023/09/05 04:13:27;;;;;;;;;;;;;;;23.09;55.29;101098.38;4195241;28;19928;-58
2023/09/05 04:15:29;;;;;;;;;;;;;;;23.08;55.39;101099.34;4195121;28;19925;-58
2023/09/05 04:17:30;;;;;;;;;;;;;;;23.08;55.15;101102.03;4194101;27;19924;-58
2023/09/05 04:19:32;;;;;;;;;;;;;;;23.09;55.33;101103.72;4177574;28;19955;-58
2023/09/05 04:21:34;;;;;;;;;;;;;;;23.08;55.41;101104.69;4195479;28;19928;-57
2023/09/05 04:23:36;;;;;;;;;;;;;;;23.08;55.67;101093.97;4195186;28;19929;-58
2023/09/05 04:25:40;;;;;;;;;;;;;;;23.08;55.53;101102.03;4195153;28;20027;-59
2023/09/05 04:27:41;;;;;;;;;;;;;;;23.08;55.67;101109.22;4206216;28;20015;-58
2023/09/05 04:29:43;;;;;;;;;;;;;;;23.07;55.45;101121.78;4211622;28;19957;-58
2023/09/05 04:31:44;;;;;;;;;;;;;;;23.07;55.31;101124.47;4212056;28;19952;-59
2023/09/05 04:33:48;;;;;;;;;;;;;;;23.06;55.70;101119.22;4211809;28;19924;-58
2023/09/05 04:35:50;;;;;;;;;;;;;;;23.06;55.70;101125.47;4211870;28;20363;-58
2023/09/05 04:37:52;;;;;;;;;;;;;;;23.06;55.74;101129.97;4210685;28;19931;-58
2023/09/05 04:39:54;;;;;;;;;;;;;;;23.06;55.61;101133.50;4211670;28;20011;-58
2023/09/05 04:41:56;;;;;;;;;;;;;;;23.06;55.63;101136.19;4212007;28;19924;-58
2023/09/05 04:43:58;;;;;;;;;;;;;;;23.05;55.55;101131.81;4207336;28;19928;-58
2023/09/05 04:45:59;;;;;;;;;;;;;;;23.05;55.71;101139.84;4195001;28;19956;-58
2023/09/05 04:48:01;;;;;;;;;;;;;;;23.05;55.33;101141.66;4194139;28;19963;-58
2023/09/05 04:50:08;;;;;;;;;;;;;;;23.04;55.66;101148.88;4194664;28;19931;-57
2023/09/05 04:52:12;;;;;;;;;;;;;;;23.03;55.69;101149.84;4195030;28;19924;-58
2023/09/05 04:54:13;;;;;;;;;;;;;;;23.03;55.62;101157.06;4194917;28;19929;-58
2023/09/05 04:56:15;;;;;;;;;;;;;;;23.03;55.67;101157.88;4194067;28;19955;-58
2023/09/05 04:58:16;;;;;;;;;;;;;;;23.02;55.60;101161.56;4194101;28;20017;-58
2023/09/05 05:00:23;;;;;;;;;;;;;;;23.03;55.44;101159.72;4194888;28;19925;-58
2023/09/05 05:02:31;;;;;;;;;;;;;;;23.02;55.71;101160.72;4194779;27;19977;-58
2023/09/05 05:04:33;;;;;;;;;;;;;;;23.02;55.61;101169.59;4210036;28;19928;-58
2023/09/05 05:06:34;;;;;;;;;;;;;;;23.02;55.73;101171.44;4193804;28;20417;-58
2023/09/05 05:08:36;;;;;;;;;;;;;;;23.02;55.56;101174.13;4194870;28;20011;-58
2023/09/05 05:10:38;;;;;;;;;;;;;;;23.02;55.54;101174.13;4194827;28;19925;-57
2023/09/05 05:12:44;;;;;;;;;;;;;;;23.01;55.59;101177.78;4194394;28;19924;-58
2023/09/05 05:14:46;;;;;;;;;;;;;;;23.01;55.57;101183.97;4194445;28;19928;-58
2023/09/05 05:16:49;;;;;;;;;;;;;;;23.00;55.49;101189.47;4208812;28;20011;-58
2023/09/05 05:18:50;;;;;;;;;;;;;;;23.00;55.78;101182.28;4194765;28;19932;-58
2023/09/05 05:20:52;;;;;;;;;;;;;;;23.00;55.82;101186.78;4194225;28;20007;-57
2023/09/05 05:22:53;;;;;;;;;;;;;;;23.00;55.56;101181.44;4194677;27;20346;-58
2023/09/05 05:24:55;;;;;;;;;;;;;;;23.00;55.51;101181.44;4194491;28;20282;-58
2023/09/05 05:26:57;;;;;;;;;;;;;;;22.97;55.46;101180.69;4193215;28;19928;-58
2023/09/05 05:28:58;;;;;;;;;;;;;;;22.98;55.63;101186.94;4194284;28;19960;-59
2023/09/05 05:31:00;;;;;;;;;;;;;;;22.98;55.73;101185.09;4194434;28;19925;-59
2023/09/05 05:33:02;;;;;;;;;;;;;;;22.98;55.65;101187.78;4194253;28;19943;-58
2023/09/05 05:35:04;;;;;;;;;;;;;;;22.98;55.79;101194.97;4194460;28;19928;-59
2023/09/05 05:37:11;;;;;;;;;;;;;;;22.97;55.77;101199.47;4193395;28;19947;-59
2023/09/05 05:39:12;;;;;;;;;;;;;;;22.98;55.47;101190.44;4194513;28;19962;-57
2023/09/05 05:41:14;;;;;;;;;;;;;;;22.98;55.71;101184.25;4193866;28;19978;-59
2023/09/05 05:43:16;;;;;;;;;;;;;;;22.97;55.70;101183.38;4194418;28;20201;-59
2023/09/05 05:45:17;;;;;;;;;;;;;;;22.96;55.86;101178.97;4209323;28;19924;-58
2023/09/05 05:47:18;;;;;;;;;;;;;;;22.97;55.67;101185.22;4210392;28;20304;-59
2023/09/05 05:49:20;;;;;;;;;;;;;;;22.97;55.58;101182.53;4210977;28;19924;-59
2023/09/05 05:51:22;;;;;;;;;;;;;;;22.95;55.59;101182.66;4211216;28;19947;-59
2023/09/05 05:53:24;;;;;;;;;;;;;;;22.97;55.83;101185.22;4211053;28;20023;-58
2023/09/05 05:55:25;;;;;;;;;;;;;;;22.97;55.64;101185.22;4193038;28;20023;-58
2023/09/05 05:57:27;;;;;;;;;;;;;;;22.97;55.54;101183.38;4209620;28;19930;-59
2023/09/05 05:59:29;;;;;;;;;;;;;;;22.96;55.53;101181.66;4210852;28;20556;-58
2023/09/05 06:01:32;;;;;;;;;;;;;;;22.95;55.73;101182.66;4192795;28;19925;-59
2023/09/05 06:03:36;;;;;;;;;;;;;;;22.97;55.42;101191.41;4203774;28;19928;-58
2023/09/05 06:05:38;;;;;;;;;;;;;;;22.96;55.78;101183.50;4194051;28;20289;-59
2023/09/05 06:07:40;;;;;;;;;;;;;;;22.96;55.62;101186.19;4192735;28;19932;-58
2023/09/05 06:09:41;;;;;;;;;;;;;;;22.95;55.61;101185.34;4194308;28;20019;-58
2023/09/05 06:11:43;;;;;;;;;;;;;;;22.87;55.55;101178.88;4193652;28;19925;-58
2023/09/05 06:13:44;;;;;;;;;;;;;;;22.97;55.41;101190.59;4193919;28;19932;-59
2023/09/05 06:15:46;;;;;;;;;;;;;;;22.97;55.61;101190.59;4194001;28;20361;-59
2023/09/05 06:17:47;;;;;;;;;;;;;;;22.96;55.49;101186.19;4192692;28;20001;-58
2023/09/05 06:19:50;;;;;;;;;;;;;;;22.96;55.67;101192.41;4193881;28;19949;-59
2023/09/05 06:21:52;;;;;;;;;;;;;;;22.96;55.36;101199.59;4193784;28;19924;-58
2023/09/05 06:23:53;;;;;;;;;;;;;;;22.96;55.47;101200.44;4193823;28;19969;-59
2023/09/05 06:25:55;;;;;;;;;;;;;;;22.95;55.42;101200.56;4193655;28;19988;-59
2023/09/05 06:27:56;;;;;;;;;;;;;;;22.96;55.53;101202.28;4192763;28;19930;-59
2023/09/05 06:29:58;;;;;;;;;;;;;;;22.95;55.59;101204.13;4193768;28;19931;-59
2023/09/05 06:31:59;;;;;;;;;;;;;;;22.96;55.34;101204.97;4193650;28;20405;-59
2023/09/05 06:34:01;;;;;;;;;;;;;;;22.95;55.53;101214.84;4196191;28;20383;-58
2023/09/05 06:36:06;;;;;;;;;;;;;;;22.97;55.32;101209.34;4196963;28;19924;-59
2023/09/05 06:38:08;;;;;;;;;;;;;;;22.96;55.72;101216.53;4195819;28;19925;-58
2023/09/05 06:40:12;;;;;;;;;;;;;;;22.96;55.63;101208.50;4196492;28;20386;-58
2023/09/05 06:42:16;;;;;;;;;;;;;;;22.96;55.75;101213.00;4196848;27;19929;-59
2023/09/05 06:44:18;;;;;;;;;;;;;;;22.96;55.51;101205.81;4203363;27;19924;-58
2023/09/05 06:46:19;;;;;;;;;;;;;;;22.95;55.49;101198.75;4195419;28;20477;-59
2023/09/05 06:48:21;;;;;;;;;;;;;;;22.95;55.42;101196.09;4212432;28;19924;-59
2023/09/05 06:50:23;;;;;;;;;;;;;;;22.96;55.42;101200.44;4213202;28;19979;-59
2023/09/05 06:52:25;;;;;;;;;;;;;;;22.97;55.40;101198.63;4213344;28;19932;-59
2023/09/05 06:54:26;;;;;;;;;;;;;;;22.96;55.22;101200.44;4212951;28;20180;-58
2023/09/05 06:56:28;;;;;;;;;;;;;;;22.97;55.55;101204.00;4213160;28;20381;-60
2023/09/05 06:58:30;;;;;;;;;;;;;;;22.95;55.43;101198.75;4212411;28;19936;-58
2023/09/05 07:00:33;;;;;;;;;;;;;;;22.95;55.36;101198.75;4213140;28;20015;-58
2023/09/05 07:02:35;;;;;;;;;;;;;;;22.97;55.12;101198.63;4213067;28;19935;-58
2023/09/05 07:04:39;;;;;;;;;;;;;;;22.96;55.23;101202.28;4197211;28;19924;-59
2023/09/05 07:06:41;;;;;;;;;;;;;;;22.97;55.48;101193.25;4195674;28;19947;-59
2023/09/05 07:08:42;;;;;;;;;;;;;;;22.97;55.07;101201.31;4195832;28;19925;-58
2023/09/05 07:10:45;;;;;;;;;;;;;;;22.97;55.37;101198.63;4196389;28;19966;-58
2023/09/05 07:12:46;;;;;;;;;;;;;;;22.97;55.37;101204.84;4196246;28;20401;-58
2023/09/05 07:14:48;;;;;;;;;;;;;;;22.98;55.35;101205.72;4196418;28;19963;-58
2023/09/05 07:16:50;;;;;;;;;;;;;;;22.98;55.35;101206.53;4177230;28;19925;-58
2023/09/05 07:18:51;;;;;;;;;;;;;;;22.98;55.47;101203.03;4178399;28;19925;-59
2023/09/05 07:20:53;;;;;;;;;;;;;;;22.98;55.01;101205.72;4196222;28;19925;-58
2023/09/05 07:22:55;;;;;;;;;;;;;;;22.97;55.00;101204.84;4195672;28;19928;-58
2023/09/05 07:24:56;;;;;;;;;;;;;;;22.98;54.81;101208.38;4195985;28;20015;-59
2023/09/05 07:26:58;;;;;;;;;;;;;;;23.00;55.06;101208.25;4195267;28;20453;-62
2023/09/05 07:28:59;;;;;;;;;;;;;;;23.01;55.32;101215.34;4195925;28;19928;-59
2023/09/05 07:31:01;;;;;;;;;;;;;;;23.02;55.35;101211.69;4196078;28;20393;-58
2023/09/05 07:33:03;;;;;;;;;;;;;;;23.04;55.24;101215.06;4196188;28;19972;-59
2023/09/05 07:35:05;;;;;;;;;;;;;;;23.04;55.11;101207.88;4196001;28;20394;-59
2023/09/05 07:37:06;;;;;;;;;;;;;;;23.03;55.15;101206.19;4194732;28;19928;-59
2023/09/05 07:39:10;;;;;;;;;;;;;;;23.06;55.11;101210.44;4195988;28;19925;-59
2023/09/05 07:41:11;;;;;;;;;;;;;;;23.07;55.20;101213.00;4195911;28;19924;-59
2023/09/05 07:43:13;;;;;;;;;;;;;;;23.09;54.67;101208.38;4195940;28;19928;-58
2023/09/05 07:45:14;;;;;;;;;;;;;;;23.10;55.08;101207.38;4210335;27;19924;-58
2023/09/05 07:47:16;;;;;;;;;;;;;;;23.12;54.72;101208.13;4211675;28;20134;-58
2023/09/05 07:49:18;;;;;;;;;;;;;;;23.12;54.90;101202.75;4212420;28;19924;-59
2023/09/05 07:51:22;;;;;;;;;;;;;;;23.14;54.60;101198.09;4212824;28;19924;-59
2023/09/05 07:53:24;;;;;;;;;;;;;;;23.16;54.58;101206.06;4212358;28;20189;-59
2023/09/05 07:55:26;;;;;;;;;;;;;;;23.18;54.46;101203.25;4212407;28;19924;-59
2023/09/05 07:57:28;;;;;;;;;;;;;;;23.20;54.54;101206.69;4211251;28;19930;-58
2023/09/05 07:59:31;;;;;;;;;;;;;;;23.21;54.33;101205.69;4212247;28;19964;-58
2023/09/05 08:01:32;;;;;;;;;;;;;;;23.20;54.05;101204.84;4212365;28;19924;-58
2023/09/05 08:03:34;;;;;;;;;;;;;;;23.21;53.88;101209.22;4204910;28;19931;-59
2023/09/05 08:05:36;;;;;;;;;;;;;;;23.23;54.16;101217.16;4195558;27;20397;-59
2023/09/05 08:07:38;;;;;;;;;;;;;;;23.25;54.11;101208.00;4194214;28;19948;-59
2023/09/05 08:09:39;;;;;;;;;;;;;;;23.26;53.97;101211.53;4195365;28;19967;-58
2023/09/05 08:11:41;;;;;;;;;;;;;;;23.28;53.94;101214.94;4195577;28;20001;-59
2023/09/05 08:13:42;;;;;;;;;;;;;;;23.30;54.09;101218.34;4177804;28;20353;-58
2023/09/05 08:15:44;;;;;;;;;;;;;;;23.31;54.28;101214.69;4195327;28;19929;-58
2023/09/05 08:17:47;;;;;;;;;;;;;;;23.33;54.27;101214.56;4194160;28;19935;-58
2023/09/05 08:19:49;;;;;;;;;;;;;;;23.33;53.83;101218.13;4195205;28;19928;-59
2023/09/05 08:21:51;;;;;;;;;;;;;;;23.35;53.74;101217.97;4195171;28;19924;-58
2023/09/05 08:23:52;;;;;;;;;;;;;;;23.35;54.14;101213.47;4195389;28;19928;-58
2023/09/05 08:25:56;;;;;;;;;;;;;;;23.37;53.81;101222.25;4195328;28;19977;-58
2023/09/05 08:27:58;;;;;;;;;;;;;;;23.39;53.91;101219.44;4194105;28;19925;-59
2023/09/05 08:29:59;;;;;;;;;;;;;;;23.38;54.03;101221.28;4195139;28;20427;-59
2023/09/05 08:32:01;;;;;;;;;;;;;;;23.38;53.93;101226.63;4195308;28;19924;-58
2023/09/05 08:34:03;;;;;;;;;;;;;;;23.39;53.69;101222.97;4195289;28;19977;-57
2023/09/05 08:36:05;;;;;;;;;;;;;;;23.40;53.80;101222.00;4194732;28;19932;-58
2023/09/05 08:38:07;;;;;;;;;;;;;;;23.42;53.80;101211.13;4194118;28;19947;-59
2023/09/05 08:40:09;;;;;;;;;;;;;;;23.42;53.84;101206.59;4195064;28;19925;-58
2023/09/05 08:42:11;;;;;;;;;;;;;;;23.45;53.87;101210.88;4195350;28;20309;-58
2023/09/05 08:44:12;;;;;;;;;;;;;;;23.45;53.77;101214.41;4200839;27;19924;-59
2023/09/05 08:46:14;;;;;;;;;;;;;;;23.47;53.56;101216.13;4211883;28;20353;-59
2023/09/05 08:48:16;;;;;;;;;;;;;;;23.48;53.85;101217.84;4210682;28;20396;-59
2023/09/05 08:50:17;;;;;;;;;;;;;;;23.49;53.67;101211.47;4211465;28;20360;-58
2023/09/05 08:52:19;;;;;;;;;;;;;;;23.50;53.67;101218.53;4211794;28;20419;-59
2023/09/05 08:54:24;;;;;;;;;;;;;;;23.50;53.56;101227.47;4212062;28;19932;-59
2023/09/05 08:56:26;;;;;;;;;;;;;;;23.52;53.79;101213.91;4210787;28;19928;-59
2023/09/05 08:58:29;;;;;;;;;;;;;;;23.53;53.70;101221.00;4210568;27;20026;-59
2023/09/05 09:00:32;;;;;;;;;;;;;;;23.53;53.75;101221.81;4211665;28;19924;-59
2023/09/05 09:02:37;;;;;;;;;;;;;;;23.55;53.51;101227.06;4211673;28;19924;-59
2023/09/05 09:04:51;;;;;;;;;;;;;;;23.57;53.55;101227.81;4194895;28;20014;-58
2023/09/05 09:06:57;;;;;;;;;;;;;;;23.58;53.43;101235.72;4194944;28;19925;-58
2023/09/05 09:08:59;;;;;;;;;;;;;;;23.60;53.53;101240.97;4194046;27;20286;-59
2023/09/05 09:11:05;;;;;;;;;;;;;;;23.62;53.46;101228.25;4194604;28;19924;-59
2023/09/05 09:13:14;;;;;;;;;;;;;;;23.63;53.39;101224.59;4194513;28;19925;-59
2023/09/05 09:15:16;;;;;;;;;;;;;;;23.60;53.75;101222.19;4194713;28;20020;-58
2023/09/05 09:17:18;;;;;;;;;;;;;;;23.62;53.48;101230.94;4193492;28;19977;-59
2023/09/05 09:19:20;;;;;;;;;;;;;;;23.64;53.61;101226.31;4194523;28;19935;-59
2023/09/05 09:21:23;;;;;;;;;;;;;;;23.65;53.59;101233.38;4194681;28;20320;-59
2023/09/05 09:23:28;;;;;;;;;;;;;;;23.68;53.25;101225.09;4194528;28;19948;-59
2023/09/05 09:25:30;;;;;;;;;;;;;;;23.69;53.37;101223.25;4176714;28;19925;-59
2023/09/05 09:27:31;;;;;;;;;;;;;;;23.70;53.31;101224.97;4193675;28;19924;-59
2023/09/05 09:29:33;;;;;;;;;;;;;;;23.70;53.35;101223.09;4194212;28;19928;-59
2023/09/05 09:31:35;;;;;;;;;;;;;;;23.70;53.45;101231.16;4194577;28;19925;-58
2023/09/05 09:33:37;;;;;;;;;;;;;;;23.74;53.57;101229.06;4194009;28;19937;-58
2023/09/05 09:35:38;;;;;;;;;;;;;;;23.76;53.37;101230.66;4194486;28;20055;-59
2023/09/05 09:37:40;;;;;;;;;;;;;;;23.74;53.33;101227.25;4193466;28;20472;-59
2023/09/05 09:39:41;;;;;;;;;;;;;;;23.74;53.45;101224.56;4194403;28;19984;-59
2023/09/05 09:41:44;;;;;;;;;;;;;;;23.75;53.23;101226.25;4194268;28;19924;-59
2023/09/05 09:43:53;;;;;;;;;;;;;;;23.79;53.33;101226.00;4196707;27;20381;-58
2023/09/05 09:45:56;;;;;;;;;;;;;;;23.80;53.48;101225.03;4210960;28;19924;-59
2023/09/05 09:48:00;;;;;;;;;;;;;;;23.81;53.35;101221.38;4210006;28;19931;-59
2023/09/05 09:50:02;;;;;;;;;;;;;;;23.81;53.20;101219.53;4211074;28;19924;-58
2023/09/05 09:52:04;;;;;;;;;;;;;;;23.82;53.37;101217.72;4211128;28;19931;-59
2023/09/05 09:54:06;;;;;;;;;;;;;;;23.83;53.24;101211.34;4210865;28;19977;-58
2023/09/05 09:56:09;;;;;;;;;;;;;;;23.85;53.11;101212.06;4210934;28;20038;-58
2023/09/05 09:58:14;;;;;;;;;;;;;;;23.84;53.17;101203.16;4209807;28;19924;-58
2023/09/05 10:00:18;;;;;;;;;;;;;;;23.85;53.07;101206.69;4211015;28;19924;-59
2023/09/05 10:02:20;;;;;;;;;;;;;;;23.87;53.45;101208.25;4210682;28;20019;-58
2023/09/05 10:04:23;;;;;;;;;;;;;;;23.88;53.41;101203.75;4197036;28;19924;-58
2023/09/05 10:06:26;;;;;;;;;;;;;;;23.88;53.34;101204.59;4194328;28;19938;-58
2023/09/05 10:08:28;;;;;;;;;;;;;;;23.92;53.10;101202.50;4194589;28;19938;-58
2023/09/05 10:10:31;;;;;;;;;;;;;;;23.83;53.27;101193.41;4196846;28;19924;-58
2023/09/05 10:12:34;;;;;;;;;;;;;;;23.93;53.16;101205.09;4197050;28;19925;-58
2023/09/05 10:14:37;;;;;;;;;;;;;;;23.94;53.43;101211.34;4179433;28;20007;-58
2023/09/05 10:16:39;;;;;;;;;;;;;;;23.95;53.25;101212.16;4196748;28;19956;-58
2023/09/05 10:18:43;;;;;;;;;;;;;;;23.97;53.32;101208.38;4196075;28;19925;-58
2023/09/05 10:20:46;;;;;;;;;;;;;;;24.00;53.13;101202.75;4197094;28;19928;-59
2023/09/05 10:22:47;;;;;;;;;;;;;;;24.02;53.04;101203.47;4197110;28;19999;-58
2023/09/05 10:24:50;;;;;;;;;;;;;;;24.01;53.22;101195.53;4196687;28;19928;-59
2023/09/05 10:26:51;;;;;;;;;;;;;;;24.03;53.25;101199.78;4196681;28;19938;-59
2023/09/05 10:28:56;;;;;;;;;;;;;;;24.04;52.96;101200.66;4196047;28;19924;-58